createdAt,value
2018-12-16T00:01:44.834Z,44.40
2018-12-16T00:04:13.204Z,44.40
2018-12-16T00:06:41.558Z,44.80
2018-12-16T00:09:09.965Z,44.40
2018-12-16T00:11:38.349Z,44.60
2018-12-16T00:14:06.706Z,44.70
2018-12-16T00:16:35.063Z,44.70
2018-12-16T00:19:03.483Z,45.10
2018-12-16T00:21:31.954Z,45.10
2018-12-16T00:24:00.344Z,45.20
2018-12-16T00:26:40.734Z,45.40
2018-12-16T00:29:09.077Z,45.60
2018-12-16T00:31:37.419Z,45.50
2018-12-16T00:34:05.883Z,45.70
2018-12-16T00:36:34.261Z,45.50
2018-12-16T00:39:02.876Z,45.20
2018-12-16T00:41:31.242Z,44.30
2018-12-16T00:43:59.594Z,44.30
2018-12-16T00:46:28.068Z,44.30
2018-12-16T00:48:56.500Z,45.40
2018-12-16T00:51:24.856Z,45.50
2018-12-16T00:53:53.248Z,46.20
2018-12-16T00:56:21.673Z,47.30
2018-12-16T00:58:50.023Z,48.40
2018-12-16T01:01:18.446Z,49.70
2018-12-16T01:03:46.819Z,51.50
2018-12-16T01:06:15.201Z,51.60
2018-12-16T01:08:44.214Z,53.10
2018-12-16T01:11:12.567Z,54.00
2018-12-16T01:13:40.943Z,54.00
2018-12-16T01:16:09.307Z,54.90
2018-12-16T01:18:37.664Z,56.10
2018-12-16T01:21:06.032Z,56.50
2018-12-16T01:23:34.370Z,56.90
2018-12-16T01:26:02.764Z,57.20
2018-12-16T01:28:31.226Z,57.70
2018-12-16T01:30:59.612Z,58.10
2018-12-16T01:33:27.978Z,58.70
2018-12-16T01:35:56.335Z,59.20
2018-12-16T01:38:24.698Z,59.70
2018-12-16T01:40:53.196Z,60.00
2018-12-16T01:43:21.562Z,60.70
2018-12-16T01:45:50.017Z,61.00
2018-12-16T01:48:18.365Z,61.60
2018-12-16T01:50:46.708Z,62.00
2018-12-16T01:53:15.102Z,62.60
2018-12-16T01:55:43.467Z,63.30
2018-12-16T01:58:11.802Z,63.30
2018-12-16T02:00:40.398Z,63.20
2018-12-16T02:03:08.738Z,64.30
2018-12-16T02:05:37.210Z,64.90
2018-12-16T02:08:05.678Z,65.00
2018-12-16T02:10:34.147Z,65.50
2018-12-16T02:13:02.541Z,65.90
2018-12-16T02:15:30.864Z,65.90
2018-12-16T02:17:59.223Z,66.40
2018-12-16T02:20:27.558Z,66.80
2018-12-16T02:22:57.063Z,67.20
2018-12-16T02:25:25.870Z,67.30
2018-12-16T02:27:54.215Z,67.70
2018-12-16T02:30:28.448Z,67.80
2018-12-16T02:32:56.965Z,68.20
2018-12-16T02:35:25.317Z,68.40
2018-12-16T02:37:53.698Z,68.60
2018-12-16T02:40:22.172Z,69.00
2018-12-16T02:42:50.571Z,68.80
2018-12-16T02:45:19.452Z,69.00
2018-12-16T02:47:49.125Z,69.00
2018-12-16T02:50:17.551Z,68.80
2018-12-16T02:52:45.932Z,69.00
2018-12-16T02:55:14.400Z,69.10
2018-12-16T02:57:42.751Z,69.00
2018-12-16T03:00:11.226Z,69.20
2018-12-16T03:02:39.552Z,69.30
2018-12-16T03:05:08.039Z,69.40
2018-12-16T03:07:36.390Z,69.30
2018-12-16T03:10:05.328Z,69.90
2018-12-16T03:12:33.680Z,69.10
2018-12-16T03:15:02.197Z,69.10
2018-12-16T03:17:30.545Z,69.40
2018-12-16T03:19:58.899Z,69.30
2018-12-16T03:22:27.274Z,69.00
2018-12-16T03:24:55.612Z,68.60
2018-12-16T03:27:23.993Z,68.20
2018-12-16T03:29:52.343Z,68.40
2018-12-16T03:32:20.816Z,69.00
2018-12-16T03:34:49.258Z,68.60
2018-12-16T03:37:17.627Z,68.60
2018-12-16T03:39:45.968Z,68.80
2018-12-16T03:42:14.295Z,68.80
2018-12-16T03:44:42.646Z,68.40
2018-12-16T03:47:11.028Z,68.50
2018-12-16T03:49:39.401Z,68.60
2018-12-16T03:52:07.812Z,68.30
2018-12-16T03:54:36.213Z,68.10
2018-12-16T03:57:04.568Z,68.20
2018-12-16T03:59:32.923Z,68.20
2018-12-16T04:02:01.281Z,68.50
2018-12-16T04:04:29.702Z,68.70
2018-12-16T04:06:58.055Z,68.90
2018-12-16T04:09:26.375Z,68.90
2018-12-16T04:11:54.778Z,69.10
2018-12-16T04:14:23.108Z,69.20
2018-12-16T04:16:51.440Z,69.30
2018-12-16T04:19:19.831Z,69.40
2018-12-16T04:21:48.191Z,69.40
2018-12-16T04:24:16.572Z,69.60
2018-12-16T04:26:44.912Z,69.90
2018-12-16T04:29:13.289Z,69.90
2018-12-16T04:31:41.628Z,69.90
2018-12-16T04:34:09.995Z,70.00
2018-12-16T04:36:38.378Z,69.80
2018-12-16T04:39:07.018Z,70.00
2018-12-16T04:41:35.547Z,70.00
2018-12-16T04:44:04.002Z,70.00
2018-12-16T04:46:32.364Z,70.00
2018-12-16T04:49:00.720Z,70.00
2018-12-16T04:51:29.098Z,70.00
2018-12-16T04:53:57.481Z,70.00
2018-12-16T04:56:25.815Z,70.10
2018-12-16T04:58:54.174Z,70.30
2018-12-16T05:01:22.511Z,70.30
2018-12-16T05:03:50.891Z,70.40
2018-12-16T05:06:19.687Z,70.50
2018-12-16T05:08:48.319Z,70.80
2018-12-16T05:11:16.759Z,71.10
2018-12-16T05:13:45.119Z,71.10
2018-12-16T05:16:13.482Z,71.20
2018-12-16T05:18:41.807Z,71.10
2018-12-16T05:21:10.175Z,71.30
2018-12-16T05:23:41.842Z,71.20
2018-12-16T05:26:08.906Z,71.20
2018-12-16T05:28:37.503Z,71.30
2018-12-16T05:31:05.839Z,70.90
2018-12-16T05:33:34.198Z,70.40
2018-12-16T05:36:02.658Z,70.40
2018-12-16T05:38:31.021Z,70.50
2018-12-16T05:40:59.396Z,70.40
2018-12-16T05:43:27.745Z,70.50
2018-12-16T05:45:56.093Z,70.60
2018-12-16T05:48:24.440Z,70.80
2018-12-16T05:50:52.793Z,71.00
2018-12-16T05:53:21.175Z,71.40
2018-12-16T05:55:49.531Z,71.40
2018-12-16T05:58:17.886Z,71.40
2018-12-16T06:00:46.235Z,71.70
2018-12-16T06:03:14.614Z,72.10
2018-12-16T06:05:43.042Z,72.60
2018-12-16T06:08:11.437Z,72.20
2018-12-16T06:10:39.793Z,72.50
2018-12-16T06:13:08.173Z,72.60
2018-12-16T06:15:36.596Z,72.60
2018-12-16T06:18:04.952Z,72.60
2018-12-16T06:20:33.295Z,72.80
2018-12-16T06:23:01.791Z,72.60
2018-12-16T06:25:30.144Z,72.80
2018-12-16T06:27:58.487Z,72.60
2018-12-16T06:30:29.195Z,72.80
2018-12-16T06:32:57.563Z,72.80
2018-12-16T06:35:25.897Z,72.80
2018-12-16T06:37:54.262Z,72.80
2018-12-16T06:40:22.637Z,72.80
2018-12-16T06:42:50.965Z,72.80
2018-12-16T06:45:19.331Z,72.80
2018-12-16T06:47:47.710Z,72.80
2018-12-16T06:50:16.063Z,72.80
2018-12-16T06:52:44.419Z,72.80
2018-12-16T06:55:12.783Z,72.80
2018-12-16T06:57:41.132Z,73.00
2018-12-16T07:00:09.578Z,73.00
2018-12-16T07:02:38.795Z,73.00
2018-12-16T07:05:07.292Z,73.40
2018-12-16T07:07:35.615Z,73.50
2018-12-16T07:10:05.053Z,73.70
2018-12-16T07:12:33.495Z,73.90
2018-12-16T07:15:01.913Z,74.10
2018-12-16T07:17:30.382Z,74.20
2018-12-16T07:19:58.707Z,74.30
2018-12-16T07:22:27.189Z,74.50
2018-12-16T07:24:55.595Z,74.60
2018-12-16T07:27:24.244Z,74.80
2018-12-16T07:29:52.739Z,74.90
2018-12-16T07:32:21.192Z,75.10
2018-12-16T07:34:49.601Z,75.40
2018-12-16T07:37:19.215Z,76.20
2018-12-16T07:39:47.822Z,76.50
2018-12-16T07:42:16.205Z,76.60
2018-12-16T07:44:44.672Z,76.30
2018-12-16T07:47:13.056Z,76.10
2018-12-16T07:49:41.504Z,75.90
2018-12-16T07:52:10.136Z,75.80
2018-12-16T07:54:38.624Z,75.60
2018-12-16T07:57:07.074Z,75.40
2018-12-16T07:59:35.423Z,75.60
2018-12-16T08:02:03.800Z,75.30
2018-12-16T08:04:32.156Z,74.90
2018-12-16T08:07:00.520Z,74.60
2018-12-16T08:09:28.888Z,74.40
2018-12-16T08:11:57.256Z,74.10
2018-12-16T08:14:25.628Z,73.90
2018-12-16T08:16:53.974Z,73.80
2018-12-16T08:19:22.322Z,73.80
2018-12-16T08:21:50.734Z,73.80
2018-12-16T08:24:23.173Z,73.80
2018-12-16T08:26:49.481Z,73.80
2018-12-16T08:29:17.817Z,74.00
2018-12-16T08:31:46.292Z,74.10
2018-12-16T08:34:14.622Z,74.10
2018-12-16T08:36:42.990Z,74.30
2018-12-16T08:39:11.538Z,74.40
2018-12-16T08:41:39.883Z,74.50
2018-12-16T08:44:08.345Z,74.50
2018-12-16T08:46:36.746Z,74.60
2018-12-16T08:49:05.121Z,74.70
2018-12-16T08:51:33.489Z,74.50
2018-12-16T08:54:01.857Z,74.50
2018-12-16T08:56:30.247Z,74.60
2018-12-16T08:58:58.606Z,74.80
2018-12-16T09:01:26.974Z,74.90
2018-12-16T09:03:56.038Z,75.00
2018-12-16T09:06:24.412Z,75.30
2018-12-16T09:08:53.149Z,75.30
2018-12-16T09:11:21.522Z,75.60
2018-12-16T09:13:49.905Z,75.90
2018-12-16T09:16:18.269Z,75.80
2018-12-16T09:18:46.705Z,76.10
2018-12-16T09:21:15.281Z,75.80
2018-12-16T09:23:43.619Z,75.90
2018-12-16T09:26:11.966Z,76.00
2018-12-16T09:28:40.341Z,76.20
2018-12-16T09:31:08.835Z,75.80
2018-12-16T09:33:37.163Z,77.00
2018-12-16T09:36:05.547Z,77.60
2018-12-16T09:38:33.911Z,78.00
2018-12-16T09:41:02.307Z,78.00
2018-12-16T09:43:30.674Z,78.80
2018-12-16T09:45:59.014Z,79.30
2018-12-16T09:48:27.351Z,79.70
2018-12-16T09:50:55.827Z,80.10
2018-12-16T09:53:24.190Z,80.70
2018-12-16T09:55:52.514Z,81.20
2018-12-16T09:58:20.877Z,81.60
2018-12-16T10:00:49.251Z,82.10
2018-12-16T10:03:17.603Z,82.60
2018-12-16T10:05:45.966Z,82.60
2018-12-16T10:08:14.333Z,82.60
2018-12-16T10:10:42.738Z,82.60
2018-12-16T10:13:11.105Z,82.60
2018-12-16T10:15:39.469Z,82.80
2018-12-16T10:18:07.835Z,83.00
2018-12-16T10:20:36.189Z,83.30
2018-12-16T10:23:04.529Z,83.20
2018-12-16T10:25:32.870Z,83.40
2018-12-16T10:28:01.234Z,83.50
2018-12-16T10:30:29.594Z,83.70
2018-12-16T10:32:57.960Z,83.80
2018-12-16T10:35:26.308Z,83.90
2018-12-16T10:37:54.663Z,83.90
2018-12-16T10:40:23.149Z,84.00
2018-12-16T10:42:51.481Z,84.10
2018-12-16T10:45:19.847Z,83.90
2018-12-16T10:47:48.184Z,73.30
2018-12-16T10:50:16.561Z,45.60
2018-12-16T10:52:44.893Z,45.60
2018-12-16T10:55:13.723Z,45.70
2018-12-16T10:57:42.094Z,45.70
2018-12-16T11:00:17.004Z,45.70
2018-12-16T11:02:45.369Z,45.70
2018-12-16T11:05:14.630Z,45.80
2018-12-16T11:07:42.999Z,45.90
2018-12-16T11:10:11.468Z,45.90
2018-12-16T11:12:40.349Z,47.50
2018-12-16T11:15:08.690Z,45.80
2018-12-16T11:17:37.050Z,45.80
2018-12-16T11:20:05.644Z,49.20
2018-12-16T11:22:34.088Z,46.80
2018-12-16T11:25:05.751Z,50.70
2018-12-16T11:27:32.780Z,49.60
2018-12-16T11:30:01.151Z,47.40
2018-12-16T11:32:29.636Z,48.40
2018-12-16T11:34:57.983Z,49.70
2018-12-16T11:37:26.325Z,51.90
2018-12-16T11:39:54.679Z,52.90
2018-12-16T11:42:23.036Z,56.30
2018-12-16T11:44:51.435Z,51.50
2018-12-16T11:47:19.805Z,46.80
2018-12-16T11:49:48.293Z,50.10
2018-12-16T11:52:16.668Z,48.10
2018-12-16T11:54:45.040Z,46.60
2018-12-16T11:57:13.402Z,47.50
2018-12-16T11:59:42.233Z,55.80
2018-12-16T12:02:10.589Z,71.50
2018-12-16T12:04:38.970Z,74.00
2018-12-16T12:07:07.454Z,81.60
2018-12-16T12:09:35.818Z,83.00
2018-12-16T12:12:04.251Z,83.70
2018-12-16T12:14:32.603Z,83.80
2018-12-16T12:17:00.970Z,83.80
2018-12-16T12:19:37.711Z,83.80
2018-12-16T12:22:06.195Z,83.90
2018-12-16T12:24:34.608Z,83.90
2018-12-16T12:27:02.990Z,83.80
2018-12-16T12:29:31.366Z,84.20
2018-12-16T12:31:59.749Z,84.40
2018-12-16T12:34:28.127Z,84.80
2018-12-16T12:36:56.496Z,85.20
2018-12-16T12:39:24.881Z,85.50
2018-12-16T12:41:53.251Z,85.80
2018-12-16T12:44:21.798Z,86.10
2018-12-16T12:46:50.122Z,86.30
2018-12-16T12:49:18.486Z,86.50
2018-12-16T12:51:47.031Z,86.60
2018-12-16T12:54:15.393Z,86.70
2018-12-16T12:56:43.786Z,86.80
2018-12-16T12:59:12.122Z,87.00
2018-12-16T13:01:40.530Z,87.00
2018-12-16T13:04:08.880Z,87.10
2018-12-16T13:06:37.248Z,87.20
2018-12-16T13:09:07.821Z,87.40
2018-12-16T13:11:36.211Z,87.40
2018-12-16T13:14:04.812Z,87.50
2018-12-16T13:16:33.392Z,87.50
2018-12-16T13:19:03.894Z,87.60
2018-12-16T13:21:32.290Z,87.70
2018-12-16T13:24:00.688Z,87.70
2018-12-16T13:26:29.190Z,87.90
2018-12-16T13:28:57.563Z,87.90
2018-12-16T13:31:26.534Z,88.00
2018-12-16T13:33:54.927Z,88.10
2018-12-16T13:36:23.404Z,88.20
2018-12-16T13:38:51.779Z,88.30
2018-12-16T13:41:20.291Z,88.40
2018-12-16T13:43:48.740Z,88.40
2018-12-16T13:46:17.119Z,88.40
2018-12-16T13:48:45.478Z,88.40
2018-12-16T13:51:14.060Z,88.40
2018-12-16T13:53:42.471Z,88.40
2018-12-16T13:56:10.860Z,88.40
2018-12-16T13:58:39.261Z,88.40
2018-12-16T14:01:07.669Z,88.40
2018-12-16T14:03:36.015Z,88.50
2018-12-16T14:06:04.563Z,88.50
2018-12-16T14:08:32.996Z,88.50
2018-12-16T14:11:01.546Z,88.50
2018-12-16T14:13:30.128Z,88.60
2018-12-16T14:15:58.656Z,88.70
2018-12-16T14:18:27.066Z,88.70
2018-12-16T14:20:55.573Z,88.70
2018-12-16T14:23:23.986Z,88.70
2018-12-16T14:25:52.350Z,88.70
2018-12-16T14:28:20.689Z,88.70
2018-12-16T14:30:49.403Z,88.70
2018-12-16T14:33:18.033Z,88.70
2018-12-16T14:35:46.417Z,88.60
2018-12-16T14:38:15.176Z,88.60
2018-12-16T14:40:43.805Z,88.50
2018-12-16T14:43:12.177Z,89.20
2018-12-16T14:45:40.555Z,88.50
2018-12-16T14:48:08.919Z,88.50
2018-12-16T14:50:37.277Z,88.60
2018-12-16T14:53:05.626Z,88.50
2018-12-16T14:55:34.127Z,88.50
2018-12-16T14:58:02.473Z,88.50
2018-12-16T15:00:30.828Z,88.50
2018-12-16T15:02:59.160Z,88.50
2018-12-16T15:05:27.573Z,88.50
2018-12-16T15:07:55.941Z,88.50
2018-12-16T15:10:24.306Z,88.40
2018-12-16T15:12:52.690Z,88.40
2018-12-16T15:15:21.466Z,88.40
2018-12-16T15:17:49.957Z,88.40
2018-12-16T15:20:18.378Z,88.40
2018-12-16T15:22:46.879Z,88.40
2018-12-16T15:25:15.250Z,88.40
2018-12-16T15:27:43.585Z,88.40
2018-12-16T15:30:12.553Z,88.40
2018-12-16T15:32:40.888Z,88.40
2018-12-16T15:35:09.247Z,88.40
2018-12-16T15:37:37.618Z,88.40
2018-12-16T15:40:06.860Z,88.40
2018-12-16T15:42:35.227Z,88.40
2018-12-16T15:45:03.837Z,88.50
2018-12-16T15:47:32.200Z,88.50
2018-12-16T15:50:00.531Z,88.60
2018-12-16T15:52:28.867Z,88.60
2018-12-16T15:54:57.211Z,88.60
2018-12-16T15:57:25.571Z,88.70
2018-12-16T15:59:53.934Z,88.70
2018-12-16T16:02:22.352Z,88.70
2018-12-16T16:04:50.758Z,88.70
2018-12-16T16:07:19.124Z,88.70
2018-12-16T16:09:47.505Z,88.70
2018-12-16T16:12:15.844Z,88.80
2018-12-16T16:14:44.195Z,88.80
2018-12-16T16:17:12.559Z,88.80
2018-12-16T16:19:41.006Z,88.90
2018-12-16T16:22:09.367Z,88.80
2018-12-16T16:24:37.715Z,88.90
2018-12-16T16:27:06.173Z,89.00
2018-12-16T16:29:34.521Z,89.10
2018-12-16T16:32:02.844Z,89.20
2018-12-16T16:34:31.211Z,89.20
2018-12-16T16:36:59.555Z,89.20
2018-12-16T16:39:34.561Z,89.20
2018-12-16T16:42:02.897Z,89.20
2018-12-16T16:44:31.282Z,89.30
2018-12-16T16:46:59.741Z,89.30
2018-12-16T16:49:28.106Z,89.30
2018-12-16T16:51:56.448Z,89.30
2018-12-16T16:54:24.799Z,89.90
2018-12-16T16:56:53.259Z,89.30
2018-12-16T16:59:21.634Z,89.20
2018-12-16T17:01:50.000Z,89.30
2018-12-16T17:04:18.380Z,89.30
2018-12-16T17:06:46.897Z,89.30
2018-12-16T17:09:15.280Z,89.30
2018-12-16T17:11:43.619Z,89.20
2018-12-16T17:14:11.979Z,89.20
2018-12-16T17:16:40.328Z,89.20
2018-12-16T17:19:08.774Z,89.20
2018-12-16T17:21:37.641Z,89.00
2018-12-16T17:24:05.991Z,89.00
2018-12-16T17:26:34.369Z,88.90
2018-12-16T17:29:02.703Z,88.90
2018-12-16T17:31:31.071Z,88.90
2018-12-16T17:33:59.560Z,88.90
2018-12-16T17:36:27.904Z,88.90
2018-12-16T17:38:56.336Z,88.80
2018-12-16T17:41:24.679Z,88.80
2018-12-16T17:43:53.043Z,88.80
2018-12-16T17:46:21.418Z,88.70
2018-12-16T17:48:49.877Z,88.80
2018-12-16T17:51:18.543Z,88.80
2018-12-16T17:53:46.924Z,88.80
2018-12-16T17:56:15.305Z,88.80
2018-12-16T17:58:43.677Z,88.70
2018-12-16T18:01:12.281Z,88.80
2018-12-16T18:03:40.628Z,89.00
2018-12-16T18:06:09.169Z,89.00
2018-12-16T18:08:37.516Z,89.10
2018-12-16T18:11:05.855Z,89.00
2018-12-16T18:13:34.244Z,89.10
2018-12-16T18:16:02.597Z,89.10
2018-12-16T18:18:31.073Z,89.20
2018-12-16T18:20:59.429Z,89.20
2018-12-16T18:23:29.809Z,89.30
2018-12-16T18:25:58.153Z,89.30
2018-12-16T18:28:26.522Z,89.30
2018-12-16T18:30:54.906Z,89.30
2018-12-16T18:33:23.500Z,89.30
2018-12-16T18:35:51.903Z,89.40
2018-12-16T18:38:20.358Z,90.00
2018-12-16T18:40:48.724Z,89.40
2018-12-16T18:43:17.060Z,89.40
2018-12-16T18:45:45.427Z,89.40
2018-12-16T18:48:13.821Z,89.40
2018-12-16T18:50:42.172Z,89.30
2018-12-16T18:53:10.640Z,89.30
2018-12-16T18:55:39.006Z,89.30
2018-12-16T18:58:07.517Z,89.40
2018-12-16T19:00:35.880Z,89.40
2018-12-16T19:03:04.261Z,89.40
2018-12-16T19:05:32.622Z,89.40
2018-12-16T19:08:01.035Z,89.40
2018-12-16T19:10:29.400Z,89.30
2018-12-16T19:12:57.767Z,89.10
2018-12-16T19:15:26.500Z,89.10
2018-12-16T19:17:54.855Z,89.10
2018-12-16T19:20:23.259Z,89.10
2018-12-16T19:22:51.632Z,89.00
2018-12-16T19:25:19.994Z,88.90
2018-12-16T19:27:48.363Z,88.90
2018-12-16T19:30:16.715Z,88.90
2018-12-16T19:32:45.102Z,88.90
2018-12-16T19:35:13.473Z,88.80
2018-12-16T19:37:41.904Z,88.80
2018-12-16T19:40:10.303Z,88.70
2018-12-16T19:42:38.698Z,88.80
2018-12-16T19:45:07.396Z,88.90
2018-12-16T19:47:35.774Z,89.00
2018-12-16T19:50:04.839Z,88.90
2018-12-16T19:52:33.248Z,89.00
2018-12-16T19:55:02.090Z,88.90
2018-12-16T19:57:30.472Z,88.80
2018-12-16T19:59:58.913Z,88.80
2018-12-16T20:02:27.418Z,88.80
2018-12-16T20:05:01.002Z,88.70
2018-12-16T20:07:29.379Z,88.70
2018-12-16T20:09:57.804Z,88.70
2018-12-16T20:12:26.198Z,88.70
2018-12-16T20:14:54.604Z,89.30
2018-12-16T20:17:23.001Z,88.70
2018-12-16T20:19:51.403Z,88.80
2018-12-16T20:22:19.783Z,88.80
2018-12-16T20:24:48.183Z,88.80
2018-12-16T20:27:16.659Z,88.80
2018-12-16T20:29:45.034Z,88.80
2018-12-16T20:32:13.425Z,88.70
2018-12-16T20:34:41.767Z,88.70
2018-12-16T20:37:10.173Z,88.80
2018-12-16T20:39:38.520Z,88.80
2018-12-16T20:42:06.888Z,88.70
2018-12-16T20:44:35.239Z,88.60
2018-12-16T20:47:03.606Z,88.30
2018-12-16T20:49:32.030Z,88.30
2018-12-16T20:52:00.412Z,88.20
2018-12-16T20:54:28.762Z,88.10
2018-12-16T20:56:57.139Z,87.90
2018-12-16T20:59:25.530Z,87.70
2018-12-16T21:01:54.030Z,88.00
2018-12-16T21:04:22.411Z,84.60
2018-12-16T21:06:50.792Z,69.90
2018-12-16T21:09:19.204Z,12.40
2018-12-16T21:11:53.036Z,8.00
2018-12-16T21:14:26.807Z,8.20
2018-12-16T21:17:00.516Z,8.30
2018-12-16T21:19:29.366Z,8.30
2018-12-16T21:21:57.722Z,8.60
2018-12-16T21:24:26.102Z,8.60
2018-12-16T21:26:54.848Z,8.60
2018-12-16T21:29:23.232Z,8.60
2018-12-16T21:31:51.657Z,8.60
2018-12-16T21:34:20.012Z,8.60
2018-12-16T21:36:48.369Z,8.50
2018-12-16T21:39:16.726Z,8.70
2018-12-16T21:41:45.091Z,8.80
2018-12-16T21:44:13.445Z,8.80
2018-12-16T21:46:41.780Z,8.80
2018-12-16T21:49:10.376Z,8.80
2018-12-16T21:51:38.713Z,8.90
2018-12-16T21:54:07.035Z,8.90
2018-12-16T21:56:35.392Z,8.90
2018-12-16T21:59:03.875Z,9.20
2018-12-16T22:01:32.321Z,9.40
2018-12-16T22:04:00.649Z,9.60
2018-12-16T22:06:29.182Z,10.10
2018-12-16T22:08:57.569Z,10.10
2018-12-16T22:11:25.911Z,10.20
2018-12-16T22:13:54.251Z,10.20
2018-12-16T22:16:22.593Z,10.30
2018-12-16T22:18:50.991Z,10.30
2018-12-16T22:21:19.355Z,10.30
2018-12-16T22:23:47.732Z,10.20
2018-12-16T22:26:16.102Z,10.10
2018-12-16T22:28:44.448Z,10.10
2018-12-16T22:31:12.817Z,10.00
2018-12-16T22:33:41.176Z,10.00
2018-12-16T22:36:09.525Z,9.90
2018-12-16T22:38:38.917Z,9.90
2018-12-16T22:41:07.275Z,9.80
2018-12-16T22:43:35.638Z,9.80
2018-12-16T22:46:04.092Z,9.80
2018-12-16T22:48:32.454Z,9.80
2018-12-16T22:51:00.791Z,9.80
2018-12-16T22:53:29.140Z,9.80
2018-12-16T22:55:57.467Z,9.80
2018-12-16T22:58:25.810Z,9.80
2018-12-16T23:01:00.042Z,9.80
2018-12-16T23:03:28.356Z,9.80
2018-12-16T23:05:56.695Z,9.80
2018-12-16T23:08:25.019Z,9.80
2018-12-16T23:10:53.377Z,9.80
2018-12-16T23:13:21.755Z,9.80
2018-12-16T23:15:50.146Z,9.80
2018-12-16T23:18:18.480Z,9.80
2018-12-16T23:20:46.834Z,9.80
2018-12-16T23:23:15.248Z,9.80
2018-12-16T23:25:43.568Z,9.80
2018-12-16T23:28:11.905Z,9.80
2018-12-16T23:30:40.231Z,9.70
2018-12-16T23:33:08.629Z,9.70
2018-12-16T23:35:36.966Z,9.70
2018-12-16T23:38:05.302Z,9.90
2018-12-16T23:40:33.769Z,9.60
2018-12-16T23:43:02.104Z,9.60
2018-12-16T23:45:30.479Z,9.60
2018-12-16T23:47:58.802Z,9.60
2018-12-16T23:50:27.116Z,9.60
2018-12-16T23:52:55.455Z,9.60
2018-12-16T23:55:23.808Z,9.50
2018-12-16T23:57:52.160Z,9.40
